sensor_id;sensor_type;location;lat;lon;timestamp;pressure;altitude;pressure_sealevel;temperature;humidity
44441;BME280;30146;52.268;20.944;2024-02-28T00:01:04;100262.27;;;12.77;64.37
44441;BME280;30146;52.268;20.944;2024-02-28T00:03:34;100260.61;;;12.75;64.36
44441;BME280;30146;52.268;20.944;2024-02-28T00:06:03;100267.33;;;12.73;64.30
44441;BME280;30146;52.268;20.944;2024-02-28T00:08:33;100273.50;;;12.73;64.47
44441;BME280;30146;52.268;20.944;2024-02-28T00:11:03;100277.46;;;12.72;64.42
44441;BME280;30146;52.268;20.944;2024-02-28T00:13:33;100274.73;;;12.71;64.39
44441;BME280;30146;52.268;20.944;2024-02-28T00:16:03;100276.29;;;12.71;64.46
44441;BME280;30146;52.268;20.944;2024-02-28T00:18:32;100274.27;;;12.69;64.58
44441;BME280;30146;52.268;20.944;2024-02-28T00:21:02;100272.19;;;12.70;64.72
44441;BME280;30146;52.268;20.944;2024-02-28T00:23:31;100275.79;;;12.70;64.65
44441;BME280;30146;52.268;20.944;2024-02-28T00:26:01;100274.75;;;12.70;64.76
44441;BME280;30146;52.268;20.944;2024-02-28T00:28:31;100273.76;;;12.68;64.58
44441;BME280;30146;52.268;20.944;2024-02-28T00:31:00;100276.34;;;12.68;64.74
44441;BME280;30146;52.268;20.944;2024-02-28T00:33:30;100280.29;;;12.67;64.70
44441;BME280;30146;52.268;20.944;2024-02-28T00:35:59;100280.19;;;12.64;64.66
44441;BME280;30146;52.268;20.944;2024-02-28T00:38:29;100281.06;;;12.63;64.68
44441;BME280;30146;52.268;20.944;2024-02-28T00:40:58;100280.41;;;12.61;64.58
44441;BME280;30146;52.268;20.944;2024-02-28T00:43:27;100277.71;;;12.59;64.65
44441;BME280;30146;52.268;20.944;2024-02-28T00:45:57;100281.54;;;12.56;64.62
44441;BME280;30146;52.268;20.944;2024-02-28T00:48:27;100279.35;;;12.54;64.72
44441;BME280;30146;52.268;20.944;2024-02-28T00:50:56;100275.25;;;12.53;64.77
44441;BME280;30146;52.268;20.944;2024-02-28T00:53:25;100272.87;;;12.52;64.81
44441;BME280;30146;52.268;20.944;2024-02-28T00:55:55;100265.06;;;12.48;64.76
44441;BME280;30146;52.268;20.944;2024-02-28T00:58:24;100270.23;;;12.46;64.76
44441;BME280;30146;52.268;20.944;2024-02-28T01:00:56;100272.86;;;12.44;64.79
44441;BME280;30146;52.268;20.944;2024-02-28T01:03:26;100284.02;;;12.42;64.90
44441;BME280;30146;52.268;20.944;2024-02-28T01:05:55;100287.13;;;12.41;64.95
44441;BME280;30146;52.268;20.944;2024-02-28T01:08:29;100287.67;;;12.39;64.99
44441;BME280;30146;52.268;20.944;2024-02-28T01:10:58;100286.50;;;12.38;65.11
44441;BME280;30146;52.268;20.944;2024-02-28T01:13:28;100292.50;;;12.37;65.22
44441;BME280;30146;52.268;20.944;2024-02-28T01:15:57;100293.89;;;12.37;65.31
44441;BME280;30146;52.268;20.944;2024-02-28T01:18:28;100300.06;;;12.36;65.38
44441;BME280;30146;52.268;20.944;2024-02-28T01:21:00;100293.90;;;12.36;65.34
44441;BME280;30146;52.268;20.944;2024-02-28T01:23:29;100295.62;;;12.36;65.55
44441;BME280;30146;52.268;20.944;2024-02-28T01:25:59;100297.17;;;12.35;65.54
44441;BME280;30146;52.268;20.944;2024-02-28T01:28:31;100300.29;;;12.33;65.48
44441;BME280;30146;52.268;20.944;2024-02-28T01:31:00;100309.58;;;12.31;65.64
44441;BME280;30146;52.268;20.944;2024-02-28T01:33:30;100307.38;;;12.30;65.76
44441;BME280;30146;52.268;20.944;2024-02-28T01:36:00;100318.52;;;12.29;65.83
44441;BME280;30146;52.268;20.944;2024-02-28T01:38:30;100321.33;;;12.26;65.76
44441;BME280;30146;52.268;20.944;2024-02-28T01:40:59;100317.07;;;12.25;66.05
44441;BME280;30146;52.268;20.944;2024-02-28T01:43:29;100320.00;;;12.23;66.14
44441;BME280;30146;52.268;20.944;2024-02-28T01:45:58;100323.29;;;12.22;66.25
44441;BME280;30146;52.268;20.944;2024-02-28T01:48:28;100315.41;;;12.21;66.29
44441;BME280;30146;52.268;20.944;2024-02-28T01:50:59;100306.17;;;12.20;66.41
44441;BME280;30146;52.268;20.944;2024-02-28T01:53:28;100303.48;;;12.18;66.35
44441;BME280;30146;52.268;20.944;2024-02-28T01:55:58;100313.09;;;12.17;66.58
44441;BME280;30146;52.268;20.944;2024-02-28T01:58:28;100318.95;;;12.14;66.55
44441;BME280;30146;52.268;20.944;2024-02-28T02:01:11;100311.96;;;12.11;66.72
44441;BME280;30146;52.268;20.944;2024-02-28T02:03:44;100310.83;;;12.08;66.65
44441;BME280;30146;52.268;20.944;2024-02-28T02:06:14;100310.71;;;12.05;66.81
44441;BME280;30146;52.268;20.944;2024-02-28T02:09:04;100311.05;;;12.04;67.13
44441;BME280;30146;52.268;20.944;2024-02-28T02:11:34;100310.37;;;12.04;67.28
44441;BME280;30146;52.268;20.944;2024-02-28T02:14:03;100307.13;;;12.03;67.21
44441;BME280;30146;52.268;20.944;2024-02-28T02:16:33;100310.55;;;12.03;67.35
44441;BME280;30146;52.268;20.944;2024-02-28T02:19:02;100312.78;;;12.03;67.45
44441;BME280;30146;52.268;20.944;2024-02-28T02:21:34;100309.67;;;12.04;67.60
44441;BME280;30146;52.268;20.944;2024-02-28T02:24:04;100306.41;;;12.05;67.62
44441;BME280;30146;52.268;20.944;2024-02-28T02:26:33;100311.74;;;12.04;67.65
44441;BME280;30146;52.268;20.944;2024-02-28T02:29:03;100317.23;;;12.04;67.57
44441;BME280;30146;52.268;20.944;2024-02-28T02:31:32;100319.34;;;12.00;67.66
44441;BME280;30146;52.268;20.944;2024-02-28T02:34:02;100317.17;;;11.97;67.69
44441;BME280;30146;52.268;20.944;2024-02-28T02:36:31;100320.30;;;11.94;67.82
44441;BME280;30146;52.268;20.944;2024-02-28T02:39:01;100322.56;;;11.90;67.97
44441;BME280;30146;52.268;20.944;2024-02-28T02:41:30;100319.88;;;11.86;67.94
44441;BME280;30146;52.268;20.944;2024-02-28T02:44:00;100311.21;;;11.81;67.99
44441;BME280;30146;52.268;20.944;2024-02-28T02:46:29;100304.40;;;11.78;68.21
44441;BME280;30146;52.268;20.944;2024-02-28T02:48:59;100300.48;;;11.78;68.33
44441;BME280;30146;52.268;20.944;2024-02-28T02:51:28;100302.89;;;11.77;68.46
44441;BME280;30146;52.268;20.944;2024-02-28T02:54:01;100299.59;;;11.80;68.85
44441;BME280;30146;52.268;20.944;2024-02-28T02:56:30;100304.86;;;11.82;68.91
44441;BME280;30146;52.268;20.944;2024-02-28T02:59:00;100302.09;;;11.84;68.96
44441;BME280;30146;52.268;20.944;2024-02-28T03:01:29;100300.66;;;11.87;69.04
44441;BME280;30146;52.268;20.944;2024-02-28T03:03:59;100292.77;;;11.89;69.14
44441;BME280;30146;52.268;20.944;2024-02-28T03:06:28;100294.80;;;11.91;69.23
44441;BME280;30146;52.268;20.944;2024-02-28T03:08:58;100298.56;;;11.93;69.11
44441;BME280;30146;52.268;20.944;2024-02-28T03:11:27;100306.25;;;11.94;69.29
44441;BME280;30146;52.268;20.944;2024-02-28T03:13:57;100314.27;;;11.96;69.36
44441;BME280;30146;52.268;20.944;2024-02-28T03:16:26;100300.05;;;11.96;69.37
44441;BME280;30146;52.268;20.944;2024-02-28T03:18:57;100287.71;;;11.97;69.49
44441;BME280;30146;52.268;20.944;2024-02-28T03:21:26;100290.08;;;11.98;69.63
44441;BME280;30146;52.268;20.944;2024-02-28T03:23:56;100300.34;;;11.99;69.59
44441;BME280;30146;52.268;20.944;2024-02-28T03:26:25;100303.27;;;11.99;69.56
44441;BME280;30146;52.268;20.944;2024-02-28T03:28:55;100308.07;;;11.99;69.69
44441;BME280;30146;52.268;20.944;2024-02-28T03:31:24;100309.12;;;11.97;69.61
44441;BME280;30146;52.268;20.944;2024-02-28T03:33:53;100308.61;;;11.96;69.60
44441;BME280;30146;52.268;20.944;2024-02-28T03:36:23;100310.17;;;11.95;69.54
44441;BME280;30146;52.268;20.944;2024-02-28T03:38:54;100309.88;;;11.91;69.47
44441;BME280;30146;52.268;20.944;2024-02-28T03:41:27;100312.81;;;11.88;69.53
44441;BME280;30146;52.268;20.944;2024-02-28T03:43:57;100311.67;;;11.85;69.58
44441;BME280;30146;52.268;20.944;2024-02-28T03:46:26;100308.80;;;11.83;69.61
44441;BME280;30146;52.268;20.944;2024-02-28T03:48:56;100304.71;;;11.81;69.64
44441;BME280;30146;52.268;20.944;2024-02-28T03:51:25;100302.86;;;11.79;69.57
44441;BME280;30146;52.268;20.944;2024-02-28T03:53:55;100299.63;;;11.77;69.83
44441;BME280;30146;52.268;20.944;2024-02-28T03:56:24;100301.02;;;11.76;69.92
44441;BME280;30146;52.268;20.944;2024-02-28T03:58:55;100300.67;;;11.75;70.06
44441;BME280;30146;52.268;20.944;2024-02-28T04:01:25;100296.55;;;11.77;70.15
44441;BME280;30146;52.268;20.944;2024-02-28T04:03:54;100292.61;;;11.77;70.20
44441;BME280;30146;52.268;20.944;2024-02-28T04:06:24;100294.33;;;11.76;70.13
44441;BME280;30146;52.268;20.944;2024-02-28T04:08:53;100296.02;;;11.77;70.28
44441;BME280;30146;52.268;20.944;2024-02-28T04:11:23;100293.45;;;11.78;70.29
44441;BME280;30146;52.268;20.944;2024-02-28T04:13:53;100289.34;;;11.79;70.46
44441;BME280;30146;52.268;20.944;2024-02-28T04:16:22;100284.84;;;11.81;70.56
44441;BME280;30146;52.268;20.944;2024-02-28T04:18:52;100288.93;;;11.83;70.68
44441;BME280;30146;52.268;20.944;2024-02-28T04:21:21;100284.44;;;11.85;70.66
44441;BME280;30146;52.268;20.944;2024-02-28T04:23:51;100281.71;;;11.84;70.47
44441;BME280;30146;52.268;20.944;2024-02-28T04:26:20;100283.45;;;11.83;70.34
44441;BME280;30146;52.268;20.944;2024-02-28T04:28:50;100284.15;;;11.81;70.29
44441;BME280;30146;52.268;20.944;2024-02-28T04:31:19;100279.57;;;11.79;70.35
44441;BME280;30146;52.268;20.944;2024-02-28T04:33:49;100278.05;;;11.78;70.41
44441;BME280;30146;52.268;20.944;2024-02-28T04:36:18;100284.73;;;11.77;70.59
44441;BME280;30146;52.268;20.944;2024-02-28T04:38:48;100284.58;;;11.76;70.50
44441;BME280;30146;52.268;20.944;2024-02-28T04:41:17;100292.11;;;11.75;70.63
44441;BME280;30146;52.268;20.944;2024-02-28T04:43:46;100298.31;;;11.73;70.61
44441;BME280;30146;52.268;20.944;2024-02-28T04:46:16;100302.26;;;11.72;70.67
44441;BME280;30146;52.268;20.944;2024-02-28T04:48:45;100310.00;;;11.70;70.70
44441;BME280;30146;52.268;20.944;2024-02-28T04:51:16;100312.27;;;11.67;70.72
44441;BME280;30146;52.268;20.944;2024-02-28T04:53:46;100313.33;;;11.65;70.67
44441;BME280;30146;52.268;20.944;2024-02-28T04:56:15;100316.95;;;11.63;70.75
44441;BME280;30146;52.268;20.944;2024-02-28T04:58:44;100314.75;;;11.61;70.86
44441;BME280;30146;52.268;20.944;2024-02-28T05:01:14;100316.85;;;11.58;70.79
44441;BME280;30146;52.268;20.944;2024-02-28T05:03:47;100317.92;;;11.55;71.03
44441;BME280;30146;52.268;20.944;2024-02-28T05:06:17;100318.27;;;11.55;71.05
44441;BME280;30146;52.268;20.944;2024-02-28T05:08:46;100317.96;;;11.52;71.04
44441;BME280;30146;52.268;20.944;2024-02-28T05:11:16;100318.33;;;11.50;71.18
44441;BME280;30146;52.268;20.944;2024-02-28T05:13:45;100323.15;;;11.48;71.11
44441;BME280;30146;52.268;20.944;2024-02-28T05:16:15;100322.16;;;11.46;71.29
44441;BME280;30146;52.268;20.944;2024-02-28T05:18:45;100324.90;;;11.46;71.45
44441;BME280;30146;52.268;20.944;2024-02-28T05:21:17;100325.73;;;11.45;71.40
44441;BME280;30146;52.268;20.944;2024-02-28T05:23:47;100333.13;;;11.45;71.46
44441;BME280;30146;52.268;20.944;2024-02-28T05:26:22;100336.02;;;11.46;71.57
44441;BME280;30146;52.268;20.944;2024-02-28T05:28:53;100337.56;;;11.46;71.55
44441;BME280;30146;52.268;20.944;2024-02-28T05:31:25;100336.38;;;11.45;71.75
44441;BME280;30146;52.268;20.944;2024-02-28T05:33:56;100340.48;;;11.46;71.70
44441;BME280;30146;52.268;20.944;2024-02-28T05:36:26;100344.59;;;11.45;71.78
44441;BME280;30146;52.268;20.944;2024-02-28T05:38:56;100344.89;;;11.47;71.81
44441;BME280;30146;52.268;20.944;2024-02-28T05:41:27;100346.59;;;11.48;71.83
44441;BME280;30146;52.268;20.944;2024-02-28T05:43:58;100351.02;;;11.49;71.96
44441;BME280;30146;52.268;20.944;2024-02-28T05:46:27;100352.23;;;11.51;71.99
44441;BME280;30146;52.268;20.944;2024-02-28T05:48:57;100354.09;;;11.52;71.96
44441;BME280;30146;52.268;20.944;2024-02-28T05:51:26;100350.31;;;11.52;72.02
44441;BME280;30146;52.268;20.944;2024-02-28T05:53:56;100351.30;;;11.55;72.10
44441;BME280;30146;52.268;20.944;2024-02-28T05:56:25;100355.39;;;11.56;72.20
44441;BME280;30146;52.268;20.944;2024-02-28T05:58:54;100361.36;;;11.58;72.21
44441;BME280;30146;52.268;20.944;2024-02-28T06:01:24;100365.12;;;11.59;72.07
44441;BME280;30146;52.268;20.944;2024-02-28T06:03:54;100364.10;;;11.58;71.87
44441;BME280;30146;52.268;20.944;2024-02-28T06:06:24;100364.47;;;11.57;71.96
44441;BME280;30146;52.268;20.944;2024-02-28T06:08:54;100367.35;;;11.59;72.12
44441;BME280;30146;52.268;20.944;2024-02-28T06:11:24;100366.99;;;11.60;72.15
44441;BME280;30146;52.268;20.944;2024-02-28T06:13:53;100368.51;;;11.61;72.21
44441;BME280;30146;52.268;20.944;2024-02-28T06:16:23;100370.89;;;11.63;72.30
44441;BME280;30146;52.268;20.944;2024-02-28T06:18:54;100372.42;;;11.64;72.36
44441;BME280;30146;52.268;20.944;2024-02-28T06:21:24;100376.70;;;11.64;72.26
44441;BME280;30146;52.268;20.944;2024-02-28T06:23:57;100379.77;;;11.65;72.22
44441;BME280;30146;52.268;20.944;2024-02-28T06:26:26;100386.94;;;11.66;72.19
44441;BME280;30146;52.268;20.944;2024-02-28T06:28:55;100388.84;;;11.65;72.21
44441;BME280;30146;52.268;20.944;2024-02-28T06:31:29;100390.04;;;11.65;72.25
44441;BME280;30146;52.268;20.944;2024-02-28T06:33:59;100391.39;;;11.66;72.31
44441;BME280;30146;52.268;20.944;2024-02-28T06:36:30;100384.88;;;11.67;72.32
44441;BME280;30146;52.268;20.944;2024-02-28T06:38:59;100388.60;;;11.70;72.44
44441;BME280;30146;52.268;20.944;2024-02-28T06:41:29;100388.59;;;11.71;72.41
44441;BME280;30146;52.268;20.944;2024-02-28T06:43:58;100394.73;;;11.73;72.53
44441;BME280;30146;52.268;20.944;2024-02-28T06:46:28;100395.53;;;11.77;72.55
44441;BME280;30146;52.268;20.944;2024-02-28T06:48:57;100396.55;;;11.78;72.48
44441;BME280;30146;52.268;20.944;2024-02-28T06:51:27;100398.27;;;11.78;72.39
44441;BME280;30146;52.268;20.944;2024-02-28T06:53:56;100402.52;;;11.79;72.32
44441;BME280;30146;52.268;20.944;2024-02-28T06:56:26;100407.11;;;11.81;72.63
44441;BME280;30146;52.268;20.944;2024-02-28T06:58:55;100408.09;;;11.85;72.73
44441;BME280;30146;52.268;20.944;2024-02-28T07:01:25;100410.79;;;11.88;72.60
44441;BME280;30146;52.268;20.944;2024-02-28T07:03:54;100411.14;;;11.90;72.44
44441;BME280;30146;52.268;20.944;2024-02-28T07:06:24;100407.36;;;11.90;72.49
44441;BME280;30146;52.268;20.944;2024-02-28T07:08:53;100412.13;;;11.93;72.36
44441;BME280;30146;52.268;20.944;2024-02-28T07:11:23;100415.37;;;11.95;72.46
44441;BME280;30146;52.268;20.944;2024-02-28T07:13:52;100419.11;;;11.97;72.45
44441;BME280;30146;52.268;20.944;2024-02-28T07:16:22;100418.21;;;11.98;72.46
44441;BME280;30146;52.268;20.944;2024-02-28T07:18:51;100415.98;;;11.99;72.38
44441;BME280;30146;52.268;20.944;2024-02-28T07:21:21;100419.36;;;12.03;72.61
44441;BME280;30146;52.268;20.944;2024-02-28T07:23:50;100423.05;;;12.08;72.70
44441;BME280;30146;52.268;20.944;2024-02-28T07:26:22;100425.55;;;12.13;72.77
44441;BME280;30146;52.268;20.944;2024-02-28T07:28:58;100425.64;;;12.19;72.84
44441;BME280;30146;52.268;20.944;2024-02-28T07:31:27;100428.26;;;12.26;72.97
44441;BME280;30146;52.268;20.944;2024-02-28T07:33:57;100427.84;;;12.31;72.77
44441;BME280;30146;52.268;20.944;2024-02-28T07:36:26;100426.96;;;12.34;72.42
44441;BME280;30146;52.268;20.944;2024-02-28T07:38:55;100426.23;;;12.37;72.47
44441;BME280;30146;52.268;20.944;2024-02-28T07:41:25;100422.75;;;12.40;72.42
44441;BME280;30146;52.268;20.944;2024-02-28T07:43:54;100428.48;;;12.46;72.62
44441;BME280;30146;52.268;20.944;2024-02-28T07:46:24;100429.42;;;12.51;72.62
44441;BME280;30146;52.268;20.944;2024-02-28T07:48:53;100431.23;;;12.56;72.55
44441;BME280;30146;52.268;20.944;2024-02-28T07:51:23;100430.45;;;12.62;72.76
44441;BME280;30146;52.268;20.944;2024-02-28T07:53:52;100428.43;;;12.70;72.80
44441;BME280;30146;52.268;20.944;2024-02-28T07:56:22;100432.05;;;12.78;72.67
44441;BME280;30146;52.268;20.944;2024-02-28T07:58:51;100437.45;;;12.95;72.79
44441;BME280;30146;52.268;20.944;2024-02-28T08:01:21;100434.05;;;13.11;72.87
44441;BME280;30146;52.268;20.944;2024-02-28T08:03:50;100436.39;;;13.23;72.53
44441;BME280;30146;52.268;20.944;2024-02-28T08:06:20;100434.92;;;13.29;72.12
44441;BME280;30146;52.268;20.944;2024-02-28T08:08:50;100437.80;;;13.33;71.87
44441;BME280;30146;52.268;20.944;2024-02-28T08:11:19;100440.02;;;13.34;71.48
44441;BME280;30146;52.268;20.944;2024-02-28T08:13:48;100443.66;;;13.30;71.15
44441;BME280;30146;52.268;20.944;2024-02-28T08:16:18;100445.27;;;13.26;71.05
44441;BME280;30146;52.268;20.944;2024-02-28T08:18:47;100448.92;;;13.23;71.10
44441;BME280;30146;52.268;20.944;2024-02-28T08:21:16;100451.58;;;13.20;71.07
44441;BME280;30146;52.268;20.944;2024-02-28T08:23:46;100452.50;;;13.16;71.04
44441;BME280;30146;52.268;20.944;2024-02-28T08:26:16;100455.48;;;13.13;71.05
44441;BME280;30146;52.268;20.944;2024-02-28T08:28:45;100455.00;;;13.11;71.08
44441;BME280;30146;52.268;20.944;2024-02-28T08:31:15;100455.22;;;13.08;71.21
44441;BME280;30146;52.268;20.944;2024-02-28T08:33:44;100459.15;;;13.08;71.44
44441;BME280;30146;52.268;20.944;2024-02-28T08:36:14;100457.28;;;13.08;71.38
44441;BME280;30146;52.268;20.944;2024-02-28T08:38:44;100455.79;;;13.05;71.24
44441;BME280;30146;52.268;20.944;2024-02-28T08:41:13;100452.91;;;13.03;71.32
44441;BME280;30146;52.268;20.944;2024-02-28T08:43:45;100452.92;;;13.02;71.51
44441;BME280;30146;52.268;20.944;2024-02-28T08:46:15;100452.23;;;13.03;71.64
44441;BME280;30146;52.268;20.944;2024-02-28T08:48:45;100447.60;;;13.03;71.65
44441;BME280;30146;52.268;20.944;2024-02-28T08:51:15;100447.07;;;13.03;71.68
44441;BME280;30146;52.268;20.944;2024-02-28T08:53:45;100451.01;;;13.03;71.53
44441;BME280;30146;52.268;20.944;2024-02-28T08:56:20;100447.77;;;13.03;71.57
44441;BME280;30146;52.268;20.944;2024-02-28T08:58:49;100448.25;;;13.04;71.70
44441;BME280;30146;52.268;20.944;2024-02-28T09:01:19;100443.89;;;13.08;71.97
44441;BME280;30146;52.268;20.944;2024-02-28T09:03:48;100443.92;;;13.16;72.18
44441;BME280;30146;52.268;20.944;2024-02-28T09:06:18;100450.98;;;13.24;72.18
44441;BME280;30146;52.268;20.944;2024-02-28T09:08:47;100444.36;;;13.31;72.03
44441;BME280;30146;52.268;20.944;2024-02-28T09:11:17;100446.58;;;13.40;72.19
44441;BME280;30146;52.268;20.944;2024-02-28T09:13:46;100449.40;;;13.54;72.28
44441;BME280;30146;52.268;20.944;2024-02-28T09:16:16;100451.55;;;13.67;72.35
44441;BME280;30146;52.268;20.944;2024-02-28T09:18:47;100450.46;;;13.78;72.08
44441;BME280;30146;52.268;20.944;2024-02-28T09:21:17;100450.46;;;13.86;71.86
44441;BME280;30146;52.268;20.944;2024-02-28T09:23:46;100452.93;;;13.92;71.60
44441;BME280;30146;52.268;20.944;2024-02-28T09:26:16;100452.45;;;13.98;71.49
44441;BME280;30146;52.268;20.944;2024-02-28T09:28:45;100450.08;;;14.04;71.53
44441;BME280;30146;52.268;20.944;2024-02-28T09:31:15;100447.51;;;14.12;71.48
44441;BME280;30146;52.268;20.944;2024-02-28T09:33:45;100447.05;;;14.17;71.14
44441;BME280;30146;52.268;20.944;2024-02-28T09:36:15;100452.15;;;14.20;71.01
44441;BME280;30146;52.268;20.944;2024-02-28T09:38:44;100448.84;;;14.21;71.01
44441;BME280;30146;52.268;20.944;2024-02-28T09:41:15;100450.92;;;14.20;70.83
44441;BME280;30146;52.268;20.944;2024-02-28T09:43:45;100452.30;;;14.19;70.67
44441;BME280;30146;52.268;20.944;2024-02-28T09:46:15;100457.20;;;14.16;70.49
44441;BME280;30146;52.268;20.944;2024-02-28T09:48:45;100458.11;;;14.14;70.59
44441;BME280;30146;52.268;20.944;2024-02-28T09:51:20;100463.44;;;14.14;70.76
44441;BME280;30146;52.268;20.944;2024-02-28T09:53:51;100463.73;;;14.16;70.78
44441;BME280;30146;52.268;20.944;2024-02-28T09:56:23;100467.84;;;14.17;70.58
44441;BME280;30146;52.268;20.944;2024-02-28T09:58:52;100467.20;;;14.15;70.64
44441;BME280;30146;52.268;20.944;2024-02-28T10:01:23;100471.52;;;14.13;70.50
44441;BME280;30146;52.268;20.944;2024-02-28T10:03:55;100469.70;;;14.11;70.42
44441;BME280;30146;52.268;20.944;2024-02-28T10:06:25;100472.36;;;14.07;70.33
44441;BME280;30146;52.268;20.944;2024-02-28T10:08:57;100470.31;;;14.06;70.49
44441;BME280;30146;52.268;20.944;2024-02-28T10:11:27;100472.92;;;14.05;70.52
44441;BME280;30146;52.268;20.944;2024-02-28T10:13:58;100471.73;;;14.04;70.38
44441;BME280;30146;52.268;20.944;2024-02-28T10:16:27;100471.15;;;13.99;70.10
44441;BME280;30146;52.268;20.944;2024-02-28T10:18:57;100473.13;;;13.95;70.21
44441;BME280;30146;52.268;20.944;2024-02-28T10:21:29;100476.34;;;13.89;70.16
44441;BME280;30146;52.268;20.944;2024-02-28T10:24:00;100480.09;;;13.83;70.09
44441;BME280;30146;52.268;20.944;2024-02-28T10:26:32;100477.82;;;13.76;70.06
44441;BME280;30146;52.268;20.944;2024-02-28T10:29:06;100482.59;;;13.69;70.17
44441;BME280;30146;52.268;20.944;2024-02-28T10:31:39;100484.93;;;13.63;70.29
44441;BME280;30146;52.268;20.944;2024-02-28T10:34:09;100490.16;;;13.60;70.43
44441;BME280;30146;52.268;20.944;2024-02-28T10:36:38;100488.00;;;13.56;70.39
44441;BME280;30146;52.268;20.944;2024-02-28T10:39:08;100490.65;;;13.53;70.40
44441;BME280;30146;52.268;20.944;2024-02-28T10:41:38;100489.55;;;13.47;70.51
44441;BME280;30146;52.268;20.944;2024-02-28T10:44:11;100488.41;;;13.44;70.75
44441;BME280;30146;52.268;20.944;2024-02-28T10:46:41;100487.08;;;13.42;70.80
44441;BME280;30146;52.268;20.944;2024-02-28T10:49:11;100491.58;;;13.40;70.93
44441;BME280;30146;52.268;20.944;2024-02-28T10:51:41;100492.64;;;13.38;71.12
44441;BME280;30146;52.268;20.944;2024-02-28T10:54:16;100495.91;;;13.38;71.21
44441;BME280;30146;52.268;20.944;2024-02-28T10:56:46;100497.13;;;13.37;71.27
44441;BME280;30146;52.268;20.944;2024-02-28T10:59:17;100497.30;;;13.37;71.45
44441;BME280;30146;52.268;20.944;2024-02-28T11:01:46;100499.48;;;13.39;71.59
44441;BME280;30146;52.268;20.944;2024-02-28T11:04:16;100501.86;;;13.41;71.74
44441;BME280;30146;52.268;20.944;2024-02-28T11:06:50;100500.64;;;13.42;71.69
44441;BME280;30146;52.268;20.944;2024-02-28T11:09:21;100506.46;;;13.43;71.69
44441;BME280;30146;52.268;20.944;2024-02-28T11:11:54;100500.81;;;13.42;71.70
44441;BME280;30146;52.268;20.944;2024-02-28T11:14:29;100504.58;;;13.42;71.66
44441;BME280;30146;52.268;20.944;2024-02-28T11:17:05;100504.91;;;13.42;71.52
44441;BME280;30146;52.268;20.944;2024-02-28T11:19:35;100501.88;;;13.41;71.54
44441;BME280;30146;52.268;20.944;2024-02-28T11:22:04;100501.31;;;13.42;71.68
44441;BME280;30146;52.268;20.944;2024-02-28T11:24:34;100500.09;;;13.43;71.71
44441;BME280;30146;52.268;20.944;2024-02-28T11:27:05;100500.23;;;13.45;71.81
44441;BME280;30146;52.268;20.944;2024-02-28T11:29:35;100497.60;;;13.48;71.86
44441;BME280;30146;52.268;20.944;2024-02-28T11:32:05;100503.04;;;13.51;71.71
44441;BME280;30146;52.268;20.944;2024-02-28T11:34:36;100506.42;;;13.54;71.67
44441;BME280;30146;52.268;20.944;2024-02-28T11:37:08;100507.08;;;13.56;71.48
44441;BME280;30146;52.268;20.944;2024-02-28T11:39:38;100507.77;;;13.55;71.38
44441;BME280;30146;52.268;20.944;2024-02-28T11:42:11;100511.72;;;13.56;71.32
44441;BME280;30146;52.268;20.944;2024-02-28T11:44:42;100514.29;;;13.57;71.39
44441;BME280;30146;52.268;20.944;2024-02-28T11:47:12;100515.14;;;13.57;71.21
44441;BME280;30146;52.268;20.944;2024-02-28T11:49:48;100516.33;;;13.57;71.27
44441;BME280;30146;52.268;20.944;2024-02-28T11:52:20;100522.36;;;13.56;71.00
44441;BME280;30146;52.268;20.944;2024-02-28T11:54:49;100523.95;;;13.53;70.89
44441;BME280;30146;52.268;20.944;2024-02-28T11:57:19;100523.66;;;13.51;70.85
44441;BME280;30146;52.268;20.944;2024-02-28T11:59:48;100524.23;;;13.47;70.62
44441;BME280;30146;52.268;20.944;2024-02-28T12:02:19;100520.89;;;13.43;70.44
44441;BME280;30146;52.268;20.944;2024-02-28T12:04:53;100521.30;;;13.39;70.22
44441;BME280;30146;52.268;20.944;2024-02-28T12:07:23;100521.90;;;13.34;70.39
44441;BME280;30146;52.268;20.944;2024-02-28T12:09:57;100521.25;;;13.33;70.56
44441;BME280;30146;52.268;20.944;2024-02-28T12:12:26;100524.02;;;13.29;70.43
44441;BME280;30146;52.268;20.944;2024-02-28T12:14:58;100524.77;;;13.25;70.44
44441;BME280;30146;52.268;20.944;2024-02-28T12:17:29;100522.24;;;13.23;70.40
44441;BME280;30146;52.268;20.944;2024-02-28T12:20:00;100527.08;;;13.21;70.43
44441;BME280;30146;52.268;20.944;2024-02-28T12:22:29;100523.72;;;13.17;70.29
44441;BME280;30146;52.268;20.944;2024-02-28T12:24:59;100525.15;;;13.13;70.12
44441;BME280;30146;52.268;20.944;2024-02-28T12:27:46;100529.49;;;13.10;70.28
44441;BME280;30146;52.268;20.944;2024-02-28T12:30:16;100527.30;;;13.08;70.34
44441;BME280;30146;52.268;20.944;2024-02-28T12:32:47;100532.48;;;13.06;70.47
44441;BME280;30146;52.268;20.944;2024-02-28T12:35:17;100531.32;;;13.04;70.37
44441;BME280;30146;52.268;20.944;2024-02-28T12:37:46;100532.73;;;13.01;70.26
44441;BME280;30146;52.268;20.944;2024-02-28T12:40:17;100535.02;;;12.98;70.01
44441;BME280;30146;52.268;20.944;2024-02-28T12:42:46;100528.89;;;12.94;70.19
44441;BME280;30146;52.268;20.944;2024-02-28T12:45:16;100528.26;;;12.92;70.08
44441;BME280;30146;52.268;20.944;2024-02-28T12:47:46;100529.63;;;12.91;70.30
44441;BME280;30146;52.268;20.944;2024-02-28T12:50:18;100530.99;;;12.92;70.45
44441;BME280;30146;52.268;20.944;2024-02-28T12:52:49;100532.69;;;12.93;70.54
44441;BME280;30146;52.268;20.944;2024-02-28T12:55:21;100534.27;;;12.91;70.38